Time;durP1;ratioP1;P1;durP2;ratioP2;P2;SDS_P1;SDS_P2;PMS_P1;PMS_P2;Temp;Humidity;BMP_temperature;BMP_pressure;BME280_temperature;BME280_humidity;BME280_pressure;Samples;Min_cycle;Max_cycle;Signal;HPM_P1;HPM_P2
2022/11/08 00:02:55;;;;;;;0.20;0.10;;;;;;;6.31;100.00;99909.50;5044384;28;20144;-77
2022/11/08 00:13:57;;;;;;;0.20;0.10;;;;;;;6.28;100.00;99912.84;5039928;28;20118;-77
2022/11/08 00:16:27;;;;;;;0.35;0.20;;;;;;;6.29;100.00;99911.16;5043795;28;20052;-76
2022/11/08 00:18:55;;;;;;;2.30;0.20;;;;;;;6.27;100.00;99920.50;5045992;28;20494;-76
2022/11/08 00:21:24;;;;;;;0.00;0.00;;;;;;;6.25;100.00;99922.13;5035109;28;20045;-77
2022/11/08 00:23:53;;;;;;;0.08;0.08;;;;;;;6.22;100.00;99922.91;5041280;28;20055;-76
2022/11/08 00:26:25;;;;;;;0.43;0.20;;;;;;;6.20;100.00;99923.69;5038370;28;20057;-77
2022/11/08 00:28:53;;;;;;;0.60;0.22;;;;;;;6.20;100.00;99923.69;5041031;28;20073;-77
2022/11/08 00:31:22;;;;;;;0.93;0.20;;;;;;;6.17;100.00;99932.16;5038325;28;20041;-76
2022/11/08 00:33:51;;;;;;;0.90;0.15;;;;;;;6.16;100.00;99924.41;5039811;28;20483;-76
2022/11/08 00:36:19;;;;;;;0.22;0.10;;;;;;;6.16;100.00;99932.09;5041689;28;20506;-76
2022/11/08 00:38:48;;;;;;;1.55;0.10;;;;;;;6.17;100.00;99928.72;5039868;28;20045;-77
2022/11/08 00:41:17;;;;;;;0.10;0.00;;;;;;;6.20;100.00;99931.41;5035932;28;20483;-76
2022/11/08 00:43:47;;;;;;;0.10;0.10;;;;;;;6.20;100.00;99927.13;5034369;28;20071;-74
2022/11/08 00:46:16;;;;;;;0.25;0.17;;;;;;;6.16;100.00;99937.25;5044413;28;20245;-75
2022/11/08 00:48:44;;;;;;;1.40;0.17;;;;;;;6.15;100.00;99925.25;5021864;28;20049;-78
2022/11/08 00:51:16;;;;;;;0.30;0.10;;;;;;;6.17;100.00;99933.88;5041625;28;20041;-75
2022/11/08 00:53:45;;;;;;;1.15;0.10;;;;;;;6.14;100.00;99928.59;5047494;28;20052;-76
2022/11/08 00:56:14;;;;;;;0.17;0.13;;;;;;;6.13;100.00;99932.88;5039974;28;20051;-76
2022/11/08 00:58:43;;;;;;;0.20;0.10;;;;;;;6.17;100.00;99933.88;5042966;28;20044;-77
2022/11/08 01:01:14;;;;;;;0.17;0.10;;;;;;;6.14;100.00;99936.31;5033046;28;20057;-78
2022/11/08 01:03:43;;;;;;;0.20;0.20;;;;;;;6.11;100.00;99936.22;5041891;28;20157;-75
2022/11/08 01:06:14;;;;;;;6.47;0.28;;;;;;;6.10;100.00;99939.63;5045386;28;20076;-77
2022/11/08 01:08:42;;;;;;;0.65;0.13;;;;;;;6.12;100.00;99940.56;5037750;28;20045;-77
2022/11/08 01:11:15;;;;;;;0.10;0.05;;;;;;;6.15;100.00;99940.66;5042061;28;20048;-76
2022/11/08 01:13:44;;;;;;;0.30;0.20;;;;;;;6.18;100.00;99938.16;5040590;28;20049;-79
2022/11/08 01:16:16;;;;;;;0.25;0.10;;;;;;;6.19;100.00;99940.81;5045631;28;20933;-76
2022/11/08 01:18:45;;;;;;;0.00;0.00;;;;;;;6.15;100.00;99943.22;5036477;28;20067;-77
2022/11/08 01:21:17;;;;;;;0.20;0.20;;;;;;;6.15;100.00;99956.94;5045430;28;20053;-76
2022/11/08 01:23:47;;;;;;;0.22;0.17;;;;;;;6.15;100.00;99948.34;5040246;28;20045;-79
2022/11/08 01:26:17;;;;;;;0.22;0.22;;;;;;;6.12;100.00;99951.69;5040329;28;20680;-77
2022/11/08 01:28:46;;;;;;;0.40;0.22;;;;;;;6.12;100.00;99953.41;5045566;28;20045;-82
2022/11/08 01:31:18;;;;;;;0.40;0.20;;;;;;;6.12;100.00;99950.81;5040071;28;20047;-81
2022/11/08 01:33:47;;;;;;;0.63;0.20;;;;;;;6.13;100.00;99948.28;5039498;28;20072;-79
2022/11/08 01:36:18;;;;;;;1.08;0.15;;;;;;;6.12;100.00;99955.97;5046743;28;20056;-76
2022/11/08 01:38:46;;;;;;;0.30;0.20;;;;;;;6.12;100.00;99953.41;5040544;28;20071;-75
2022/11/08 01:41:16;;;;;;;0.28;0.17;;;;;;;6.10;100.00;99949.91;5038503;28;20045;-76
2022/11/08 01:43:47;;;;;;;0.20;0.20;;;;;;;6.09;100.00;99956.69;5036258;28;20060;-76
2022/11/08 01:46:41;;;;;;;0.40;0.20;;;;;;;6.06;100.00;99957.47;5037246;28;20038;-76
2022/11/08 01:49:21;;;;;;;0.70;0.30;;;;;;;6.06;100.00;99962.59;5033220;28;20053;-76
2022/11/08 01:51:55;;;;;;;0.30;0.10;;;;;;;6.07;100.00;99959.25;5041523;28;20060;-76
2022/11/08 01:54:29;;;;;;;0.28;0.20;;;;;;;6.02;100.00;99959.88;5045604;28;20055;-76
2022/11/08 01:56:58;;;;;;;0.20;0.17;;;;;;;6.00;100.00;99966.66;5044827;28;20049;-76
2022/11/08 01:59:28;;;;;;;0.35;0.22;;;;;;;5.99;100.00;99960.66;5045342;28;20090;-75
2022/11/08 02:01:59;;;;;;;0.20;0.20;;;;;;;5.98;100.00;99970.84;5041571;28;20063;-75
2022/11/08 02:04:28;;;;;;;0.40;0.30;;;;;;;5.96;100.00;99967.41;5045161;28;20055;-76
2022/11/08 02:06:57;;;;;;;0.22;0.20;;;;;;;5.91;100.00;99977.47;5046135;28;20103;-77
2022/11/08 02:09:26;;;;;;;0.10;0.10;;;;;;;5.89;100.00;99979.09;5041851;28;20049;-77
2022/11/08 02:11:56;;;;;;;0.22;0.13;;;;;;;5.87;100.00;99975.59;5041230;28;20053;-77
2022/11/08 02:14:24;;;;;;;0.22;0.10;;;;;;;5.86;100.00;99982.44;5045512;28;20061;-76
2022/11/08 02:16:53;;;;;;;0.50;0.20;;;;;;;5.87;100.00;99978.16;5046938;28;20051;-76
2022/11/08 02:19:31;;;;;;;0.10;0.10;;;;;;;5.87;100.00;99991.00;5039994;28;20104;-75
2022/11/08 02:22:05;;;;;;;0.17;0.10;;;;;;;5.83;100.00;99996.84;5043831;28;20060;-78
2022/11/08 02:24:36;;;;;;;0.20;0.10;;;;;;;5.78;100.00;99990.69;5046010;28;20057;-78
2022/11/08 02:27:05;;;;;;;0.20;0.10;;;;;;;5.77;100.00;99994.03;5038649;28;20045;-76
2022/11/08 02:29:35;;;;;;;0.08;0.08;;;;;;;5.74;100.00;99993.94;5045409;28;20036;-75
2022/11/08 02:32:06;;;;;;;0.70;0.20;;;;;;;5.71;100.00;99998.97;5042123;28;20041;-77
2022/11/08 02:34:38;;;;;;;0.22;0.10;;;;;;;5.68;100.00;99999.75;5048738;28;20063;-76
2022/11/08 02:37:08;;;;;;;0.05;0.05;;;;;;;5.62;100.00;100000.38;5044009;28;20053;-76
2022/11/08 02:39:38;;;;;;;0.30;0.10;;;;;;;5.57;100.00;100001.03;5044778;28;20059;-75
2022/11/08 02:42:07;;;;;;;0.47;0.28;;;;;;;5.51;100.00;100001.66;5042365;28;20051;-75
2022/11/08 02:44:36;;;;;;;0.52;0.10;;;;;;;5.52;100.00;100010.22;5043171;28;20049;-75
2022/11/08 02:47:04;;;;;;;6.35;0.35;;;;;;;5.49;100.00;100008.41;5044260;28;20112;-74
2022/11/08 02:49:33;;;;;;;0.10;0.05;;;;;;;5.49;100.00;100005.00;5044734;28;20052;-75
2022/11/08 02:52:01;;;;;;;0.00;0.00;;;;;;;5.47;100.00;99999.78;5039031;28;21184;-75
2022/11/08 02:54:30;;;;;;;0.17;0.10;;;;;;;5.46;100.00;100010.88;5041588;28;20068;-75
2022/11/08 02:57:01;;;;;;;1.38;0.30;;;;;;;5.50;100.00;100011.84;5039956;28;20064;-75
2022/11/08 02:59:29;;;;;;;1.80;0.20;;;;;;;5.52;100.00;100010.22;5041213;28;20044;-75
2022/11/08 03:02:05;;;;;;;0.13;0.10;;;;;;;5.49;100.00;100013.56;5041903;28;20053;-76
2022/11/08 03:04:34;;;;;;;0.40;0.20;;;;;;;5.48;100.00;100013.50;5040129;28;20045;-78
2022/11/08 03:07:02;;;;;;;0.20;0.20;;;;;;;5.44;100.00;100015.06;5043531;28;20065;-75
2022/11/08 03:09:31;;;;;;;0.00;0.00;;;;;;;5.45;100.00;100021.94;5038843;28;20045;-78
2022/11/08 03:12:01;;;;;;;0.22;0.10;;;;;;;5.48;100.00;100027.22;5040480;28;20900;-79
2022/11/08 03:14:30;;;;;;;0.20;0.20;;;;;;;5.52;100.00;100023.06;5038533;28;20049;-76
2022/11/08 03:16:59;;;;;;;0.63;0.20;;;;;;;5.55;100.00;100023.19;5041245;28;20045;-77
2022/11/08 03:19:27;;;;;;;0.10;0.10;;;;;;;5.59;100.00;100019.91;5045158;28;20045;-77
2022/11/08 03:21:56;;;;;;;0.40;0.28;;;;;;;5.63;100.00;100017.50;5043658;28;20037;-76
2022/11/08 03:24:25;;;;;;;0.22;0.20;;;;;;;5.69;100.00;100010.88;5048461;28;20137;-78
2022/11/08 03:26:53;;;;;;;0.43;0.30;;;;;;;5.71;100.00;100019.50;5047298;28;20041;-77
2022/11/08 03:29:30;;;;;;;0.17;0.10;;;;;;;5.75;100.00;100021.34;5041964;28;20048;-77
2022/11/08 03:31:58;;;;;;;0.10;0.08;;;;;;;5.79;100.00;100012.94;5042832;28;20041;-77
2022/11/08 03:34:27;;;;;;;0.32;0.20;;;;;;;5.81;100.00;100019.00;5042114;28;20063;-76
2022/11/08 03:36:56;;;;;;;0.25;0.10;;;;;;;5.81;100.00;100022.44;5045407;28;20040;-75
2022/11/08 03:39:24;;;;;;;2.15;0.15;;;;;;;5.74;100.00;100017.91;5041165;28;20051;-77
2022/11/08 03:41:53;;;;;;;0.20;0.20;;;;;;;5.73;100.00;100020.44;5045407;28;20052;-78
2022/11/08 03:44:23;;;;;;;0.20;0.20;;;;;;;5.69;100.00;100027.16;5041272;28;20133;-77
2022/11/08 03:46:52;;;;;;;0.32;0.17;;;;;;;5.64;100.00;100020.97;5052721;28;20067;-76
2022/11/08 03:49:21;;;;;;;0.15;0.10;;;;;;;5.55;100.00;100008.66;5037532;28;20056;-78
2022/11/08 03:51:51;;;;;;;0.38;0.20;;;;;;;5.61;100.00;100018.28;5043509;28;20056;-77
2022/11/08 03:54:20;;;;;;;0.50;0.30;;;;;;;5.58;100.00;100021.59;5045300;28;20514;-77
2022/11/08 03:56:49;;;;;;;0.65;0.20;;;;;;;5.58;100.00;100019.03;5041808;28;20080;-77
2022/11/08 03:59:18;;;;;;;0.57;0.30;;;;;;;5.62;100.00;100026.03;5043542;28;20041;-77
2022/11/08 04:01:48;;;;;;;0.40;0.22;;;;;;;5.58;100.00;100013.03;5043324;28;20045;-77
2022/11/08 04:04:16;;;;;;;0.20;0.13;;;;;;;5.70;100.00;100025.44;5043176;28;20079;-77
2022/11/08 04:06:45;;;;;;;0.70;0.30;;;;;;;5.74;100.00;100027.31;5043535;28;20049;-78
2022/11/08 04:09:14;;;;;;;0.57;0.20;;;;;;;5.79;100.00;100028.34;5039980;28;20053;-77
2022/11/08 04:17:16;;;;;;;0.10;0.10;;;;;;;5.82;100.00;100013.94;5041461;28;20717;-76
2022/11/08 04:22:30;;;;;;;0.40;0.10;;;;;;;5.94;100.00;100034.09;5040928;28;20060;-77
2022/11/08 04:24:58;;;;;;;0.00;0.00;;;;;;;5.96;100.00;100035.03;5040719;28;20049;-75
2022/11/08 04:27:27;;;;;;;0.45;0.20;;;;;;;5.97;100.00;100026.50;5043946;28;20057;-75
2022/11/08 04:29:56;;;;;;;0.30;0.10;;;;;;;5.99;100.00;100029.13;5041233;28;20055;-75
2022/11/08 04:32:26;;;;;;;0.60;0.25;;;;;;;6.00;100.00;100034.31;5037212;28;20046;-76
2022/11/08 04:34:57;;;;;;;0.40;0.10;;;;;;;5.99;100.00;100037.69;5038906;28;20047;-80
2022/11/08 04:37:26;;;;;;;0.50;0.30;;;;;;;6.00;100.00;100031.75;5037970;28;20049;-77
2022/11/08 04:39:54;;;;;;;0.20;0.13;;;;;;;6.02;100.00;100026.66;5035320;28;20045;-79
2022/11/08 04:42:23;;;;;;;0.50;0.50;;;;;;;6.01;100.00;100028.34;5041754;28;20566;-80
2022/11/08 04:44:52;;;;;;;0.25;0.25;;;;;;;6.02;100.00;100036.94;5046559;28;20115;-78
2022/11/08 04:47:22;;;;;;;0.40;0.40;;;;;;;6.02;100.00;100036.94;5043535;28;20052;-79
2022/11/08 04:49:53;;;;;;;0.30;0.22;;;;;;;6.02;100.00;100037.78;5043348;28;20136;-78
2022/11/08 04:52:22;;;;;;;0.35;0.28;;;;;;;6.01;100.00;100032.63;5036024;28;20041;-78
2022/11/08 04:54:50;;;;;;;0.95;0.60;;;;;;;6.04;100.00;100028.44;5042171;28;20053;-79
2022/11/08 04:57:19;;;;;;;0.17;0.17;;;;;;;6.06;100.00;100043.94;5041999;28;20071;-79
2022/11/08 04:59:49;;;;;;;0.20;0.17;;;;;;;6.05;100.00;100042.19;5040845;28;20052;-77
2022/11/08 05:02:17;;;;;;;0.10;0.10;;;;;;;6.07;100.00;100043.13;5042030;28;20088;-79
2022/11/08 05:04:46;;;;;;;0.10;0.10;;;;;;;6.07;100.00;100050.84;5036773;28;20045;-77
2022/11/08 05:07:17;;;;;;;0.22;0.20;;;;;;;6.04;100.00;100051.56;5040582;28;20702;-78
2022/11/08 05:09:45;;;;;;;0.40;0.30;;;;;;;6.03;100.00;100043.84;5037938;28;20053;-78
2022/11/08 05:12:14;;;;;;;0.30;0.20;;;;;;;6.00;100.00;100044.59;5040260;28;20045;-79
2022/11/08 05:14:42;;;;;;;0.10;0.10;;;;;;;5.99;100.00;100047.09;5043733;28;20561;-78
2022/11/08 05:17:11;;;;;;;0.10;0.10;;;;;;;5.95;100.00;100046.09;5040811;28;20056;-79
2022/11/08 05:25:12;;;;;;;0.32;0.20;;;;;;;5.81;100.00;100044.69;5040238;28;20068;-78
2022/11/08 05:27:41;;;;;;;0.20;0.20;;;;;;;5.75;100.00;100042.78;5037929;28;20061;-77
2022/11/08 05:30:10;;;;;;;0.47;0.35;;;;;;;5.73;100.00;100048.69;5044703;28;20047;-77
2022/11/08 05:32:39;;;;;;;1.35;0.15;;;;;;;5.69;100.00;100046.81;5041734;28;20052;-77
2022/11/08 05:35:08;;;;;;;0.52;0.30;;;;;;;5.64;100.00;100039.81;5047320;28;20049;-76
2022/11/08 05:37:42;;;;;;;1.50;0.85;;;;;;;5.59;100.00;100033.63;5045271;28;20494;-76
2022/11/08 05:40:12;;;;;;;2.03;1.13;;;;;;;5.54;100.00;100045.38;5043672;28;20715;-75
2022/11/08 05:42:40;;;;;;;2.25;1.00;;;;;;;5.52;100.00;100054.75;5044405;28;20045;-75
2022/11/08 05:45:10;;;;;;;1.50;0.70;;;;;;;5.49;100.00;100054.59;5047421;28;20842;-77
2022/11/08 05:47:39;;;;;;;1.70;0.90;;;;;;;5.48;100.00;100052.88;5047633;28;20073;-75
2022/11/08 05:50:08;;;;;;;2.17;1.27;;;;;;;5.45;100.00;100058.75;5043903;28;20056;-76
2022/11/08 05:52:38;;;;;;;1.63;0.85;;;;;;;5.43;100.00;100059.53;5046957;28;20043;-75
2022/11/08 05:55:08;;;;;;;2.95;1.10;;;;;;;5.39;100.00;100055.94;5051037;28;20127;-77
2022/11/08 05:57:36;;;;;;;1.45;0.70;;;;;;;5.38;100.00;100063.56;5047560;28;20049;-75
2022/11/08 06:00:06;;;;;;;1.13;0.63;;;;;;;5.36;100.00;100062.63;5044141;28;20280;-76
2022/11/08 06:02:35;;;;;;;3.00;0.60;;;;;;;5.36;100.00;100062.63;5046293;28;20049;-75
2022/11/08 06:05:04;;;;;;;2.08;0.88;;;;;;;5.35;100.00;100060.91;5042942;28;20044;-75
2022/11/08 06:07:33;;;;;;;2.05;0.95;;;;;;;5.35;100.00;100066.03;5041112;28;20179;-75
2022/11/08 06:10:04;;;;;;;2.28;1.27;;;;;;;5.33;100.00;100055.69;5042049;28;20076;-76
2022/11/08 06:12:33;;;;;;;1.65;0.80;;;;;;;5.32;100.00;100055.66;5034101;28;20045;-75
2022/11/08 06:15:01;;;;;;;1.40;1.08;;;;;;;5.28;100.00;100051.22;5043732;28;20056;-75
2022/11/08 06:17:30;;;;;;;2.10;1.58;;;;;;;5.25;100.00;100045.16;5045375;28;20037;-75
2022/11/08 06:19:58;;;;;;;3.50;1.48;;;;;;;5.28;100.00;100051.22;5045621;28;20037;-75
2022/11/08 06:22:30;;;;;;;3.60;1.73;;;;;;;5.29;100.00;100053.84;5039539;28;20065;-76
2022/11/08 06:24:59;;;;;;;4.20;1.70;;;;;;;5.28;100.00;100058.91;5039339;28;20047;-76
2022/11/08 06:27:29;;;;;;;4.70;1.80;;;;;;;5.26;100.00;100051.16;5042904;28;20060;-76
2022/11/08 06:29:58;;;;;;;3.58;1.85;;;;;;;5.22;100.00;100055.31;5047403;28;20044;-75
2022/11/08 06:32:26;;;;;;;5.85;1.55;;;;;;;5.17;100.00;100054.22;5034977;28;20055;-76
2022/11/08 06:34:55;;;;;;;2.42;1.70;;;;;;;5.11;100.00;100047.97;5038485;28;20049;-76
2022/11/08 06:37:24;;;;;;;2.42;1.38;;;;;;;5.06;100.00;100047.78;5044025;28;20475;-76
2022/11/08 06:39:52;;;;;;;4.43;1.60;;;;;;;5.02;100.00;100051.06;5041083;28;20049;-75
2022/11/08 06:42:21;;;;;;;4.55;1.00;;;;;;;4.95;100.00;100059.31;5046392;28;20068;-75
2022/11/08 06:44:51;;;;;;;2.50;0.85;;;;;;;4.88;100.00;100063.31;5043749;28;20041;-76
2022/11/08 06:47:20;;;;;;;4.30;1.30;;;;;;;4.84;100.00;100066.56;5045618;28;20525;-76
2022/11/08 06:49:48;;;;;;;4.60;2.72;;;;;;;4.83;100.00;100064.78;5050421;28;20057;-76
2022/11/08 06:52:17;;;;;;;2.95;1.42;;;;;;;4.82;100.00;100070.75;5047515;28;20045;-75
2022/11/08 06:54:46;;;;;;;3.45;1.40;;;;;;;4.82;100.00;100076.75;5040828;28;20060;-75
2022/11/08 06:57:21;;;;;;;2.92;1.58;;;;;;;4.83;100.00;100078.50;5039738;28;20402;-75
2022/11/08 06:59:51;;;;;;;3.95;1.67;;;;;;;4.83;100.00;100080.19;5046200;28;20041;-75
2022/11/08 07:02:20;;;;;;;4.28;1.60;;;;;;;4.79;100.00;100084.31;5047912;28;20060;-75
2022/11/08 07:04:48;;;;;;;3.05;1.58;;;;;;;4.75;100.00;100092.69;5041475;28;20044;-74
2022/11/08 07:07:17;;;;;;;5.85;1.70;;;;;;;4.70;100.00;100094.19;5043030;28;20502;-75
2022/11/08 07:09:46;;;;;;;3.83;1.63;;;;;;;4.62;100.00;100095.53;5039952;28;20048;-75
2022/11/08 07:12:15;;;;;;;6.85;1.70;;;;;;;4.57;100.00;100097.03;5041226;28;20471;-75
2022/11/08 07:14:43;;;;;;;3.80;1.70;;;;;;;4.56;100.00;100096.16;5042738;28;20044;-75
2022/11/08 07:17:14;;;;;;;4.95;1.90;;;;;;;4.59;100.00;100080.91;5043637;28;20461;-75
2022/11/08 07:19:43;;;;;;;1.90;1.40;;;;;;;4.64;100.00;100093.91;5047379;28;20059;-75
2022/11/08 07:22:12;;;;;;;5.20;2.22;;;;;;;4.64;100.00;100088.78;5047018;28;20063;-76
2022/11/08 07:24:40;;;;;;;2.97;1.67;;;;;;;4.66;100.00;100092.28;5041404;28;20040;-76
2022/11/08 07:27:09;;;;;;;3.40;1.80;;;;;;;4.69;100.00;100091.53;5043228;28;20053;-76
2022/11/08 07:29:38;;;;;;;3.90;1.30;;;;;;;4.70;100.00;100083.94;5043194;28;20083;-76
2022/11/08 07:32:06;;;;;;;1.98;0.95;;;;;;;4.73;100.00;100096.00;5045891;28;20055;-76
2022/11/08 07:34:37;;;;;;;3.00;1.38;;;;;;;4.73;100.00;100094.28;5040268;28;20204;-76
2022/11/08 07:37:05;;;;;;;2.55;1.35;;;;;;;4.73;100.00;100096.00;5046963;28;20064;-76
2022/11/08 07:39:34;;;;;;;2.90;1.48;;;;;;;4.74;100.00;100095.16;5047088;28;20044;-76
2022/11/08 07:42:03;;;;;;;1.27;0.73;;;;;;;4.71;100.00;100090.78;5043279;28;20380;-75
2022/11/08 07:44:31;;;;;;;2.30;1.00;;;;;;;4.70;100.00;100091.63;5041226;28;20052;-76
2022/11/08 07:47:00;;;;;;;3.17;0.90;;;;;;;4.70;100.00;100094.19;5036920;28;20814;-76
2022/11/08 07:49:28;;;;;;;2.40;0.90;;;;;;;4.70;100.00;100094.19;5036053;28;20038;-75
2022/11/08 07:51:59;;;;;;;1.83;0.98;;;;;;;4.72;100.00;100092.56;5044456;28;20044;-75
2022/11/08 07:54:27;;;;;;;2.28;1.50;;;;;;;4.71;100.00;100098.47;5041412;28;20479;-76
2022/11/08 07:56:56;;;;;;;3.53;1.40;;;;;;;4.70;100.00;100099.31;5038054;28;20140;-75
2022/11/08 07:59:25;;;;;;;3.63;1.75;;;;;;;4.68;100.00;100092.38;5047139;28;20053;-75
2022/11/08 08:01:53;;;;;;;4.32;2.28;;;;;;;4.57;100.00;100087.66;5043770;28;20049;-75
2022/11/08 08:04:22;;;;;;;4.43;1.88;;;;;;;4.68;100.00;100100.94;5035630;28;20800;-76
2022/11/08 08:07:00;;;;;;;8.80;1.58;;;;;;;4.67;100.00;100099.16;5038433;28;20049;-76
2022/11/08 08:09:28;;;;;;;8.48;1.98;;;;;;;4.66;100.00;100102.53;5045818;28;20290;-76
2022/11/08 08:11:57;;;;;;;2.45;1.85;;;;;;;4.68;100.00;100098.34;5042338;28;20056;-76
2022/11/08 08:14:26;;;;;;;6.05;1.58;;;;;;;4.68;100.00;100100.94;5038387;28;20037;-76
2022/11/08 08:16:54;;;;;;;5.07;2.33;;;;;;;4.73;100.00;100109.69;5043614;28;20033;-76
2022/11/08 08:19:23;;;;;;;3.88;1.92;;;;;;;4.76;100.00;100108.94;5043178;28;20048;-76
2022/11/08 08:21:52;;;;;;;6.72;1.90;;;;;;;4.79;100.00;100103.94;5042131;28;20033;-76
2022/11/08 08:24:22;;;;;;;5.57;2.40;;;;;;;4.80;100.00;100101.44;5042628;28;20270;-76
2022/11/08 08:26:51;;;;;;;3.53;2.03;;;;;;;4.80;100.00;100104.00;5039706;28;20061;-76
2022/11/08 08:29:19;;;;;;;6.18;2.05;;;;;;;4.79;100.00;100104.81;5045828;28;20365;-76
2022/11/08 08:31:48;;;;;;;5.65;2.13;;;;;;;4.79;100.00;100099.69;5044100;28;20503;-76
2022/11/08 08:34:17;;;;;;;4.70;2.22;;;;;;;4.80;100.00;100101.44;5036385;28;20789;-76
2022/11/08 08:36:45;;;;;;;2.47;1.40;;;;;;;4.82;100.00;100104.94;5037985;28;20045;-76
2022/11/08 08:39:14;;;;;;;3.35;1.83;;;;;;;4.81;100.00;100100.63;5043645;28;20059;-76
2022/11/08 08:41:44;;;;;;;3.38;1.88;;;;;;;4.81;100.00;100103.19;5046225;28;20051;-76
2022/11/08 08:44:13;;;;;;;2.95;1.30;;;;;;;4.81;100.00;100108.31;5042026;28;20072;-76
2022/11/08 08:46:42;;;;;;;4.30;1.38;;;;;;;4.80;100.00;100109.13;5037123;28;20064;-76
2022/11/08 08:49:10;;;;;;;3.20;1.45;;;;;;;4.78;100.00;100107.31;5037900;28;20060;-76
2022/11/08 08:51:39;;;;;;;1.58;1.35;;;;;;;4.76;100.00;100106.38;5038040;28;20410;-76
2022/11/08 08:54:10;;;;;;;3.83;1.50;;;;;;;4.73;100.00;100107.13;5041495;28;20048;-76
2022/11/08 08:56:39;;;;;;;4.05;1.55;;;;;;;4.73;100.00;100104.56;5038989;28;20603;-76
2022/11/08 08:59:09;;;;;;;2.53;1.00;;;;;;;4.72;100.00;100105.38;5043329;28;20076;-76
2022/11/08 09:01:38;;;;;;;2.92;1.55;;;;;;;4.71;100.00;100106.16;5045094;28;20053;-76
2022/11/08 09:04:06;;;;;;;2.38;1.13;;;;;;;4.72;100.00;100115.63;5034657;28;20052;-76
2022/11/08 09:06:37;;;;;;;4.88;1.15;;;;;;;4.73;100.00;100114.81;5045456;28;20057;-76
2022/11/08 09:09:06;;;;;;;3.58;1.30;;;;;;;4.72;100.00;100113.06;5047222;28;20049;-76
2022/11/08 09:11:35;;;;;;;3.00;1.63;;;;;;;4.68;100.00;100111.19;5051546;28;20192;-76
2022/11/08 09:14:03;;;;;;;1.50;1.20;;;;;;;4.68;100.00;100111.19;5047802;28;20079;-76
2022/11/08 09:16:36;;;;;;;3.67;1.40;;;;;;;4.70;100.00;100114.69;5052784;28;20045;-76
2022/11/08 09:19:05;;;;;;;1.63;1.00;;;;;;;4.70;100.00;100112.13;5038437;28;20041;-76
2022/11/08 09:21:34;;;;;;;1.88;1.35;;;;;;;4.73;100.00;100113.94;5048126;28;20103;-76
2022/11/08 09:24:02;;;;;;;1.85;1.13;;;;;;;4.73;100.00;100114.81;5042273;28;20045;-76
2022/11/08 09:26:33;;;;;;;1.40;0.90;;;;;;;4.75;100.00;100112.31;5049851;28;20139;-76
2022/11/08 09:29:01;;;;;;;2.58;1.42;;;;;;;4.74;100.00;100119.13;5047126;28;20053;-76
2022/11/08 09:31:30;;;;;;;2.10;1.23;;;;;;;4.75;100.00;100115.75;5039887;28;20049;-76
2022/11/08 09:34:00;;;;;;;1.88;0.98;;;;;;;4.76;100.00;100120.03;5037029;28;20053;-76
2022/11/08 09:36:29;;;;;;;1.92;0.95;;;;;;;4.75;100.00;100115.75;5045023;28;20052;-77
2022/11/08 09:38:58;;;;;;;1.02;0.93;;;;;;;4.76;100.00;100114.91;5041060;28;20483;-76
2022/11/08 09:41:45;;;;;;;1.75;0.77;;;;;;;4.76;100.00;100109.78;5044881;28;20052;-76
2022/11/08 09:44:37;;;;;;;1.35;0.95;;;;;;;4.76;100.00;100114.91;5030568;28;20045;-76
2022/11/08 09:47:16;;;;;;;0.95;0.70;;;;;;;4.77;100.00;100114.13;5048430;28;20087;-76
2022/11/08 09:49:54;;;;;;;1.77;0.80;;;;;;;4.74;100.00;100114.00;5044152;28;20049;-76
2022/11/08 09:52:26;;;;;;;2.60;0.80;;;;;;;4.73;100.00;100112.25;5039608;28;20219;-76
2022/11/08 09:55:05;;;;;;;4.63;1.27;;;;;;;4.71;100.00;100113.84;5040363;28;20049;-76
2022/11/08 09:57:47;;;;;;;0.55;0.55;;;;;;;4.72;100.00;100120.75;5038566;28;20289;-76
2022/11/08 10:00:18;;;;;;;1.02;0.70;;;;;;;4.70;100.00;100119.81;5042575;28;20041;-76
2022/11/08 10:02:53;;;;;;;2.88;1.02;;;;;;;4.72;100.00;100118.19;5041513;28;20249;-76
2022/11/08 10:05:23;;;;;;;3.45;1.10;;;;;;;4.75;100.00;100118.31;5041830;28;20669;-75
2022/11/08 10:07:58;;;;;;;2.85;1.42;;;;;;;4.79;100.00;100119.31;5048786;28;20045;-75
2022/11/08 10:10:54;;;;;;;2.65;1.10;;;;;;;4.84;100.00;100122.94;5040349;28;20407;-75
2022/11/08 10:13:31;;;;;;;1.75;1.30;;;;;;;4.91;100.00;100121.53;5045932;28;20067;-75
2022/11/08 10:16:12;;;;;;;2.28;1.60;;;;;;;4.95;100.00;100116.59;5042535;28;20104;-76
2022/11/08 10:19:01;;;;;;;1.00;0.70;;;;;;;4.98;100.00;100110.72;5038638;28;20041;-75
2022/11/08 10:21:54;;;;;;;2.35;1.13;;;;;;;5.02;100.00;100108.34;5043486;28;20045;-75
2022/11/08 10:24:33;;;;;;;1.58;0.73;;;;;;;5.03;100.00;100116.91;5039530;28;20053;-76
2022/11/08 10:27:03;;;;;;;1.45;1.02;;;;;;;5.05;100.00;100117.84;5042999;28;20128;-76
2022/11/08 10:29:38;;;;;;;0.70;0.70;;;;;;;5.08;100.00;100117.97;5046761;28;20051;-76
2022/11/08 10:32:15;;;;;;;3.20;1.45;;;;;;;5.10;100.00;100120.59;5039386;28;20049;-75
2022/11/08 10:34:50;;;;;;;1.13;0.85;;;;;;;5.13;100.00;100124.19;5041269;28;20148;-75
2022/11/08 10:37:22;;;;;;;1.60;0.77;;;;;;;5.17;100.00;100123.47;5042343;28;20541;-75
2022/11/08 10:39:58;;;;;;;0.93;0.82;;;;;;;5.21;100.00;100122.78;5049662;28;20048;-76
2022/11/08 10:42:39;;;;;;;1.55;0.88;;;;;;;5.24;100.00;100125.50;5040996;28;20045;-75
2022/11/08 10:45:11;;;;;;;1.80;1.10;;;;;;;5.25;100.00;100122.09;5045877;28;20054;-76
2022/11/08 10:47:41;;;;;;;1.88;1.25;;;;;;;5.29;100.00;100123.13;5043930;28;20049;-76
2022/11/08 10:50:16;;;;;;;2.70;1.52;;;;;;;5.33;100.00;100121.53;5045838;28;20057;-76
2022/11/08 10:52:54;;;;;;;2.03;1.48;;;;;;;5.34;100.00;100125.88;5047783;28;20076;-75
2022/11/08 10:55:29;;;;;;;1.33;0.95;;;;;;;5.36;100.00;100121.66;5049333;28;20053;-75
2022/11/08 10:57:58;;;;;;;2.30;1.20;;;;;;;5.39;100.00;100124.34;5051194;28;20072;-75
2022/11/08 11:00:30;;;;;;;1.48;1.00;;;;;;;5.41;100.00;100127.84;5039622;28;20051;-76
2022/11/08 11:03:00;;;;;;;1.20;0.98;;;;;;;5.43;100.00;100131.38;5041176;28;20521;-76
2022/11/08 11:05:34;;;;;;;2.55;1.27;;;;;;;5.43;100.00;100126.22;5040766;28;20044;-75
2022/11/08 11:08:15;;;;;;;1.70;1.00;;;;;;;5.41;100.00;100122.72;5043059;28;20528;-75
2022/11/08 11:10:45;;;;;;;2.00;0.90;;;;;;;5.41;100.00;100131.28;5039761;28;20060;-76
2022/11/08 11:13:15;;;;;;;2.47;1.05;;;;;;;5.42;100.00;100133.03;5046189;28;20041;-76
2022/11/08 11:15:48;;;;;;;1.20;0.75;;;;;;;5.43;100.00;100139.06;5040824;28;20072;-75
2022/11/08 11:18:28;;;;;;;2.30;1.10;;;;;;;5.42;100.00;100138.16;5043091;28;20057;-75
2022/11/08 11:21:07;;;;;;;3.40;1.67;;;;;;;5.41;100.00;100140.69;5045847;28;20525;-76
2022/11/08 11:23:41;;;;;;;1.80;1.02;;;;;;;5.36;100.00;100142.16;5036546;28;20072;-76
2022/11/08 11:26:21;;;;;;;2.70;1.45;;;;;;;5.35;100.00;100143.88;5036636;28;20063;-75
2022/11/08 11:29:20;;;;;;;2.97;1.80;;;;;;;5.34;100.00;100148.94;5031314;28;20079;-76
2022/11/08 11:31:51;;;;;;;1.58;0.80;;;;;;;5.31;100.00;100144.53;5042610;28;20546;-76
2022/11/08 11:34:28;;;;;;;1.25;0.90;;;;;;;5.33;100.00;100144.63;5043226;28;20082;-76
2022/11/08 11:37:06;;;;;;;1.08;0.85;;;;;;;5.35;100.00;100143.00;5047371;28;20055;-76
2022/11/08 11:39:44;;;;;;;1.77;0.70;;;;;;;5.35;100.00;100140.44;5043242;28;20057;-76
2022/11/08 11:42:20;;;;;;;0.80;0.50;;;;;;;5.36;100.00;100139.59;5039377;28;20048;-76
2022/11/08 11:44:59;;;;;;;1.48;0.50;;;;;;;5.36;100.00;100134.47;5043056;28;20041;-76
2022/11/08 11:47:32;;;;;;;1.30;0.77;;;;;;;5.34;100.00;100137.00;5043440;28;20430;-75
2022/11/08 11:50:11;;;;;;;1.80;0.80;;;;;;;5.36;100.00;100134.47;5041308;28;20053;-76
2022/11/08 11:52:41;;;;;;;1.02;0.70;;;;;;;5.38;100.00;100137.97;5048220;28;20567;-76
2022/11/08 11:55:15;;;;;;;2.58;1.05;;;;;;;5.38;100.00;100138.88;5043453;28;20048;-75
2022/11/08 11:57:56;;;;;;;1.95;0.90;;;;;;;5.39;100.00;100134.63;5041740;28;20059;-76
2022/11/08 12:00:25;;;;;;;1.17;0.73;;;;;;;5.39;100.00;100139.75;5047564;28;20044;-76
2022/11/08 12:03:34;;;;;;;2.75;1.00;;;;;;;5.37;100.00;100134.53;5043088;28;20053;-76
2022/11/08 12:06:21;;;;;;;1.48;1.08;;;;;;;5.37;100.00;100139.66;5030443;28;20487;-76
2022/11/08 12:09:05;;;;;;;1.30;0.90;;;;;;;5.31;100.00;100147.09;5043397;28;20045;-76